sensor_id;sensor_type;location;lat;lon;timestamp;temperature;humidity
4183;DHT22;2105;52.300;9.182;2023-10-08T00:02:24;13.90;99.90
4183;DHT22;2105;52.300;9.182;2023-10-08T00:04:51;13.80;99.90
4183;DHT22;2105;52.300;9.182;2023-10-08T00:07:20;13.80;99.90
4183;DHT22;2105;52.300;9.182;2023-10-08T00:09:48;13.60;99.90
4183;DHT22;2105;52.300;9.182;2023-10-08T00:12:16;13.70;99.90
4183;DHT22;2105;52.300;9.182;2023-10-08T00:14:44;13.60;99.90
4183;DHT22;2105;52.300;9.182;2023-10-08T00:17:15;13.60;99.90
4183;DHT22;2105;52.300;9.182;2023-10-08T00:19:44;13.50;99.90
4183;DHT22;2105;52.300;9.182;2023-10-08T00:22:11;13.40;99.90
4183;DHT22;2105;52.300;9.182;2023-10-08T00:24:39;13.40;99.90
4183;DHT22;2105;52.300;9.182;2023-10-08T00:27:07;13.40;99.90
4183;DHT22;2105;52.300;9.182;2023-10-08T00:29:34;13.40;99.90
4183;DHT22;2105;52.300;9.182;2023-10-08T00:32:05;13.50;99.90
4183;DHT22;2105;52.300;9.182;2023-10-08T00:34:37;13.50;99.90
4183;DHT22;2105;52.300;9.182;2023-10-08T00:37:08;13.40;99.90
4183;DHT22;2105;52.300;9.182;2023-10-08T00:39:36;13.50;99.90
4183;DHT22;2105;52.300;9.182;2023-10-08T00:42:03;13.40;99.90
4183;DHT22;2105;52.300;9.182;2023-10-08T00:44:33;13.40;99.90
4183;DHT22;2105;52.300;9.182;2023-10-08T00:47:04;13.40;99.90
4183;DHT22;2105;52.300;9.182;2023-10-08T00:49:32;13.20;99.90
4183;DHT22;2105;52.300;9.182;2023-10-08T00:52:15;13.20;99.90
4183;DHT22;2105;52.300;9.182;2023-10-08T00:55:04;13.00;99.90
4183;DHT22;2105;52.300;9.182;2023-10-08T00:57:35;12.80;99.90
4183;DHT22;2105;52.300;9.182;2023-10-08T01:00:04;12.80;99.90
4183;DHT22;2105;52.300;9.182;2023-10-08T01:02:40;12.80;99.90
4183;DHT22;2105;52.300;9.182;2023-10-08T01:05:13;12.70;99.90
4183;DHT22;2105;52.300;9.182;2023-10-08T01:07:43;12.70;99.90
4183;DHT22;2105;52.300;9.182;2023-10-08T01:10:15;12.70;99.90
4183;DHT22;2105;52.300;9.182;2023-10-08T01:12:45;12.50;99.90
4183;DHT22;2105;52.300;9.182;2023-10-08T01:15:21;12.40;99.90
4183;DHT22;2105;52.300;9.182;2023-10-08T01:17:54;12.20;99.90
4183;DHT22;2105;52.300;9.182;2023-10-08T01:20:26;12.20;99.90
4183;DHT22;2105;52.300;9.182;2023-10-08T01:23:06;12.00;99.90
4183;DHT22;2105;52.300;9.182;2023-10-08T01:25:38;11.90;99.90
4183;DHT22;2105;52.300;9.182;2023-10-08T01:28:06;11.80;99.90
4183;DHT22;2105;52.300;9.182;2023-10-08T01:30:41;11.70;99.90
4183;DHT22;2105;52.300;9.182;2023-10-08T01:33:08;11.70;99.90
4183;DHT22;2105;52.300;9.182;2023-10-08T01:35:39;11.70;99.90
4183;DHT22;2105;52.300;9.182;2023-10-08T01:38:08;11.70;99.90
4183;DHT22;2105;52.300;9.182;2023-10-08T01:40:39;11.60;99.90
4183;DHT22;2105;52.300;9.182;2023-10-08T01:43:06;11.60;99.90
4183;DHT22;2105;52.300;9.182;2023-10-08T01:45:36;11.60;99.90
4183;DHT22;2105;52.300;9.182;2023-10-08T01:48:06;11.60;99.90
4183;DHT22;2105;52.300;9.182;2023-10-08T01:50:35;11.50;99.90
4183;DHT22;2105;52.300;9.182;2023-10-08T01:53:02;11.40;99.90
4183;DHT22;2105;52.300;9.182;2023-10-08T01:55:33;11.30;99.90
4183;DHT22;2105;52.300;9.182;2023-10-08T01:58:12;11.20;99.90
4183;DHT22;2105;52.300;9.182;2023-10-08T02:00:42;11.10;99.90
4183;DHT22;2105;52.300;9.182;2023-10-08T02:03:11;11.10;99.90
4183;DHT22;2105;52.300;9.182;2023-10-08T02:05:39;11.00;99.90
4183;DHT22;2105;52.300;9.182;2023-10-08T02:08:08;10.90;99.90
4183;DHT22;2105;52.300;9.182;2023-10-08T02:10:37;11.00;99.90
4183;DHT22;2105;52.300;9.182;2023-10-08T02:13:04;11.00;99.90
4183;DHT22;2105;52.300;9.182;2023-10-08T02:15:31;10.90;99.90
4183;DHT22;2105;52.300;9.182;2023-10-08T02:17:58;10.90;99.90
4183;DHT22;2105;52.300;9.182;2023-10-08T02:20:25;10.80;99.90
4183;DHT22;2105;52.300;9.182;2023-10-08T02:22:53;10.90;99.90
4183;DHT22;2105;52.300;9.182;2023-10-08T02:25:19;10.90;99.90
4183;DHT22;2105;52.300;9.182;2023-10-08T02:27:47;10.90;99.90
4183;DHT22;2105;52.300;9.182;2023-10-08T02:30:14;10.90;99.90
4183;DHT22;2105;52.300;9.182;2023-10-08T02:32:43;10.90;99.90
4183;DHT22;2105;52.300;9.182;2023-10-08T02:35:10;10.90;99.90
4183;DHT22;2105;52.300;9.182;2023-10-08T02:37:38;11.00;99.90
4183;DHT22;2105;52.300;9.182;2023-10-08T02:40:07;11.10;99.90
4183;DHT22;2105;52.300;9.182;2023-10-08T02:42:43;11.10;99.90
4183;DHT22;2105;52.300;9.182;2023-10-08T02:45:12;11.20;99.90
4183;DHT22;2105;52.300;9.182;2023-10-08T02:47:41;11.20;99.90
4183;DHT22;2105;52.300;9.182;2023-10-08T02:50:10;11.20;99.90
4183;DHT22;2105;52.300;9.182;2023-10-08T02:52:37;11.20;99.90
4183;DHT22;2105;52.300;9.182;2023-10-08T02:55:05;11.20;99.90
4183;DHT22;2105;52.300;9.182;2023-10-08T02:57:44;11.20;99.90
4183;DHT22;2105;52.300;9.182;2023-10-08T03:00:13;11.20;99.90
4183;DHT22;2105;52.300;9.182;2023-10-08T03:02:44;11.20;99.90
4183;DHT22;2105;52.300;9.182;2023-10-08T03:05:12;11.30;99.90
4183;DHT22;2105;52.300;9.182;2023-10-08T03:07:42;11.30;99.90
4183;DHT22;2105;52.300;9.182;2023-10-08T03:10:09;11.30;99.90
4183;DHT22;2105;52.300;9.182;2023-10-08T03:12:43;11.40;99.90
4183;DHT22;2105;52.300;9.182;2023-10-08T03:15:14;11.50;99.90
4183;DHT22;2105;52.300;9.182;2023-10-08T03:17:54;11.70;99.90
4183;DHT22;2105;52.300;9.182;2023-10-08T03:20:23;11.70;99.90
4183;DHT22;2105;52.300;9.182;2023-10-08T03:23:04;11.80;99.90
4183;DHT22;2105;52.300;9.182;2023-10-08T03:25:37;11.80;99.90
4183;DHT22;2105;52.300;9.182;2023-10-08T03:28:07;11.90;99.90
4183;DHT22;2105;52.300;9.182;2023-10-08T03:30:39;12.00;99.90
4183;DHT22;2105;52.300;9.182;2023-10-08T03:33:16;12.10;99.90
4183;DHT22;2105;52.300;9.182;2023-10-08T03:35:48;12.20;99.90
4183;DHT22;2105;52.300;9.182;2023-10-08T03:38:19;12.10;99.90
4183;DHT22;2105;52.300;9.182;2023-10-08T03:40:54;12.00;99.90
4183;DHT22;2105;52.300;9.182;2023-10-08T03:43:23;11.90;99.90
4183;DHT22;2105;52.300;9.182;2023-10-08T03:46:00;11.90;99.90
4183;DHT22;2105;52.300;9.182;2023-10-08T03:48:31;11.90;99.90
4183;DHT22;2105;52.300;9.182;2023-10-08T03:51:02;11.90;99.90
4183;DHT22;2105;52.300;9.182;2023-10-08T03:53:36;11.90;99.90
4183;DHT22;2105;52.300;9.182;2023-10-08T03:56:17;12.10;99.90
4183;DHT22;2105;52.300;9.182;2023-10-08T03:58:45;12.00;99.90
4183;DHT22;2105;52.300;9.182;2023-10-08T04:01:13;12.00;99.90
4183;DHT22;2105;52.300;9.182;2023-10-08T04:03:44;12.00;99.90
4183;DHT22;2105;52.300;9.182;2023-10-08T04:06:23;11.90;99.90
4183;DHT22;2105;52.300;9.182;2023-10-08T04:08:56;11.90;99.90
4183;DHT22;2105;52.300;9.182;2023-10-08T04:11:37;12.10;99.90
4183;DHT22;2105;52.300;9.182;2023-10-08T04:14:17;12.10;99.90
4183;DHT22;2105;52.300;9.182;2023-10-08T04:16:46;12.30;99.90
4183;DHT22;2105;52.300;9.182;2023-10-08T04:19:17;12.20;99.90
4183;DHT22;2105;52.300;9.182;2023-10-08T04:21:44;12.20;99.90
4183;DHT22;2105;52.300;9.182;2023-10-08T04:24:11;12.20;99.90
4183;DHT22;2105;52.300;9.182;2023-10-08T04:26:40;12.30;99.90
4183;DHT22;2105;52.300;9.182;2023-10-08T04:29:08;12.20;99.90
4183;DHT22;2105;52.300;9.182;2023-10-08T04:31:35;12.20;99.90
4183;DHT22;2105;52.300;9.182;2023-10-08T04:34:05;12.30;99.90
4183;DHT22;2105;52.300;9.182;2023-10-08T04:36:41;12.20;99.90
4183;DHT22;2105;52.300;9.182;2023-10-08T04:39:08;12.20;99.90
4183;DHT22;2105;52.300;9.182;2023-10-08T04:41:41;12.30;99.90
4183;DHT22;2105;52.300;9.182;2023-10-08T04:44:09;12.40;99.90
4183;DHT22;2105;52.300;9.182;2023-10-08T04:46:40;12.30;99.90
4183;DHT22;2105;52.300;9.182;2023-10-08T04:49:14;12.20;99.90
4183;DHT22;2105;52.300;9.182;2023-10-08T04:51:54;12.20;99.90
4183;DHT22;2105;52.300;9.182;2023-10-08T04:54:23;12.30;99.90
4183;DHT22;2105;52.300;9.182;2023-10-08T04:56:50;12.20;99.90
4183;DHT22;2105;52.300;9.182;2023-10-08T04:59:18;12.20;99.90
4183;DHT22;2105;52.300;9.182;2023-10-08T05:01:47;12.10;99.90
4183;DHT22;2105;52.300;9.182;2023-10-08T05:04:16;12.10;99.90
4183;DHT22;2105;52.300;9.182;2023-10-08T05:06:58;12.10;99.90
4183;DHT22;2105;52.300;9.182;2023-10-08T05:09:39;12.00;99.90
4183;DHT22;2105;52.300;9.182;2023-10-08T05:12:13;12.10;99.90
4183;DHT22;2105;52.300;9.182;2023-10-08T05:15:00;12.10;99.90
4183;DHT22;2105;52.300;9.182;2023-10-08T05:17:40;12.20;99.90
4183;DHT22;2105;52.300;9.182;2023-10-08T05:20:24;12.30;99.90
4183;DHT22;2105;52.300;9.182;2023-10-08T05:23:10;12.30;99.90
4183;DHT22;2105;52.300;9.182;2023-10-08T05:26:18;12.30;99.90
4183;DHT22;2105;52.300;9.182;2023-10-08T05:28:56;12.30;99.90
4183;DHT22;2105;52.300;9.182;2023-10-08T05:31:48;12.30;99.90
4183;DHT22;2105;52.300;9.182;2023-10-08T05:34:25;12.30;99.90
4183;DHT22;2105;52.300;9.182;2023-10-08T05:37:09;12.30;99.90
4183;DHT22;2105;52.300;9.182;2023-10-08T05:39:58;12.20;99.90
4183;DHT22;2105;52.300;9.182;2023-10-08T05:42:38;12.10;99.90
4183;DHT22;2105;52.300;9.182;2023-10-08T05:45:12;12.20;99.90
4183;DHT22;2105;52.300;9.182;2023-10-08T05:47:55;12.10;99.90
4183;DHT22;2105;52.300;9.182;2023-10-08T05:50:33;12.10;99.90
4183;DHT22;2105;52.300;9.182;2023-10-08T05:53:10;12.00;99.90
4183;DHT22;2105;52.300;9.182;2023-10-08T05:56:01;12.00;99.90
4183;DHT22;2105;52.300;9.182;2023-10-08T05:58:41;12.00;99.90
4183;DHT22;2105;52.300;9.182;2023-10-08T06:01:11;12.00;99.90
4183;DHT22;2105;52.300;9.182;2023-10-08T06:03:52;12.10;99.90
4183;DHT22;2105;52.300;9.182;2023-10-08T06:06:25;12.10;99.90
4183;DHT22;2105;52.300;9.182;2023-10-08T06:09:05;12.00;99.90
4183;DHT22;2105;52.300;9.182;2023-10-08T06:11:45;12.00;99.90
4183;DHT22;2105;52.300;9.182;2023-10-08T06:14:21;11.90;99.90
4183;DHT22;2105;52.300;9.182;2023-10-08T06:17:02;11.90;99.90
4183;DHT22;2105;52.300;9.182;2023-10-08T06:19:39;12.00;99.90
4183;DHT22;2105;52.300;9.182;2023-10-08T06:22:05;11.90;99.90
4183;DHT22;2105;52.300;9.182;2023-10-08T06:24:33;11.90;99.90
4183;DHT22;2105;52.300;9.182;2023-10-08T06:27:04;12.00;99.90
4183;DHT22;2105;52.300;9.182;2023-10-08T06:29:32;12.00;99.90
4183;DHT22;2105;52.300;9.182;2023-10-08T06:31:59;11.90;99.90
4183;DHT22;2105;52.300;9.182;2023-10-08T06:34:28;11.80;99.90
4183;DHT22;2105;52.300;9.182;2023-10-08T06:36:59;11.80;99.90
4183;DHT22;2105;52.300;9.182;2023-10-08T06:39:27;11.90;99.90
4183;DHT22;2105;52.300;9.182;2023-10-08T06:42:14;12.00;99.90
4183;DHT22;2105;52.300;9.182;2023-10-08T06:44:40;12.10;99.90
4183;DHT22;2105;52.300;9.182;2023-10-08T06:47:09;12.20;99.90
4183;DHT22;2105;52.300;9.182;2023-10-08T06:49:36;12.30;99.90
4183;DHT22;2105;52.300;9.182;2023-10-08T06:52:04;12.40;99.90
4183;DHT22;2105;52.300;9.182;2023-10-08T06:54:31;12.40;99.90
4183;DHT22;2105;52.300;9.182;2023-10-08T06:57:00;12.50;99.90
4183;DHT22;2105;52.300;9.182;2023-10-08T06:59:29;12.50;99.90
4183;DHT22;2105;52.300;9.182;2023-10-08T07:01:57;12.50;99.90
4183;DHT22;2105;52.300;9.182;2023-10-08T07:04:24;12.60;99.90
4183;DHT22;2105;52.300;9.182;2023-10-08T07:06:51;12.70;99.90
4183;DHT22;2105;52.300;9.182;2023-10-08T07:09:19;12.90;99.90
4183;DHT22;2105;52.300;9.182;2023-10-08T07:11:54;12.90;99.90
4183;DHT22;2105;52.300;9.182;2023-10-08T07:14:22;12.90;99.90
4183;DHT22;2105;52.300;9.182;2023-10-08T07:16:53;13.00;99.90
4183;DHT22;2105;52.300;9.182;2023-10-08T07:19:24;13.20;99.90
4183;DHT22;2105;52.300;9.182;2023-10-08T07:21:58;13.70;99.90
4183;DHT22;2105;52.300;9.182;2023-10-08T07:24:29;13.80;99.90
4183;DHT22;2105;52.300;9.182;2023-10-08T07:26:57;13.70;99.90
4183;DHT22;2105;52.300;9.182;2023-10-08T07:29:25;13.90;99.90
4183;DHT22;2105;52.300;9.182;2023-10-08T07:31:53;13.90;99.90
4183;DHT22;2105;52.300;9.182;2023-10-08T07:34:20;13.70;99.90
4183;DHT22;2105;52.300;9.182;2023-10-08T07:36:57;14.00;99.90
4183;DHT22;2105;52.300;9.182;2023-10-08T07:39:23;15.00;99.90
4183;DHT22;2105;52.300;9.182;2023-10-08T07:42:00;15.50;1.00
4183;DHT22;2105;52.300;9.182;2023-10-08T07:44:27;16.00;1.00
4183;DHT22;2105;52.300;9.182;2023-10-08T07:46:57;16.00;1.00
4183;DHT22;2105;52.300;9.182;2023-10-08T07:49:25;15.60;1.00
4183;DHT22;2105;52.300;9.182;2023-10-08T07:51:55;15.30;1.00
4183;DHT22;2105;52.300;9.182;2023-10-08T07:54:24;14.80;99.90
4183;DHT22;2105;52.300;9.182;2023-10-08T07:56:53;14.60;1.00
4183;DHT22;2105;52.300;9.182;2023-10-08T07:59:25;14.50;99.90
4183;DHT22;2105;52.300;9.182;2023-10-08T08:01:51;14.80;66.20
4183;DHT22;2105;52.300;9.182;2023-10-08T08:04:22;15.00;99.90
4183;DHT22;2105;52.300;9.182;2023-10-08T08:06:49;15.40;1.00
4183;DHT22;2105;52.300;9.182;2023-10-08T08:09:16;16.20;1.00
4183;DHT22;2105;52.300;9.182;2023-10-08T08:11:45;17.00;1.00
4183;DHT22;2105;52.300;9.182;2023-10-08T08:14:13;17.60;99.90
4183;DHT22;2105;52.300;9.182;2023-10-08T08:16:43;18.00;84.80
4183;DHT22;2105;52.300;9.182;2023-10-08T08:19:14;18.30;1.00
4183;DHT22;2105;52.300;9.182;2023-10-08T08:21:43;18.10;1.00
4183;DHT22;2105;52.300;9.182;2023-10-08T08:24:12;17.90;1.00
4183;DHT22;2105;52.300;9.182;2023-10-08T08:26:39;17.70;1.00
4183;DHT22;2105;52.300;9.182;2023-10-08T08:29:26;17.40;1.00
4183;DHT22;2105;52.300;9.182;2023-10-08T08:31:53;17.00;1.00
4183;DHT22;2105;52.300;9.182;2023-10-08T08:34:22;16.80;99.90
4183;DHT22;2105;52.300;9.182;2023-10-08T08:36:50;16.40;99.90
4183;DHT22;2105;52.300;9.182;2023-10-08T08:39:17;16.20;1.00
4183;DHT22;2105;52.300;9.182;2023-10-08T08:41:59;16.30;2.60
4183;DHT22;2105;52.300;9.182;2023-10-08T08:44:28;16.10;1.00
4183;DHT22;2105;52.300;9.182;2023-10-08T08:46:58;16.20;1.00
4183;DHT22;2105;52.300;9.182;2023-10-08T08:49:25;16.10;99.90
4183;DHT22;2105;52.300;9.182;2023-10-08T08:51:55;15.80;99.90
4183;DHT22;2105;52.300;9.182;2023-10-08T08:54:26;15.80;99.90
4183;DHT22;2105;52.300;9.182;2023-10-08T08:56:56;16.00;99.90
4183;DHT22;2105;52.300;9.182;2023-10-08T08:59:26;15.90;99.90
4183;DHT22;2105;52.300;9.182;2023-10-08T09:01:56;16.10;99.90
4183;DHT22;2105;52.300;9.182;2023-10-08T09:04:28;16.20;99.90
4183;DHT22;2105;52.300;9.182;2023-10-08T09:06:59;16.60;99.90
4183;DHT22;2105;52.300;9.182;2023-10-08T09:09:31;17.00;99.90
4183;DHT22;2105;52.300;9.182;2023-10-08T09:11:59;17.40;1.00
4183;DHT22;2105;52.300;9.182;2023-10-08T09:14:28;17.60;1.00
4183;DHT22;2105;52.300;9.182;2023-10-08T09:16:57;17.80;1.00
4183;DHT22;2105;52.300;9.182;2023-10-08T09:19:25;17.70;1.00
4183;DHT22;2105;52.300;9.182;2023-10-08T09:22:04;17.60;1.00
4183;DHT22;2105;52.300;9.182;2023-10-08T09:24:32;17.20;1.00
4183;DHT22;2105;52.300;9.182;2023-10-08T09:27:02;17.00;1.00
4183;DHT22;2105;52.300;9.182;2023-10-08T09:29:29;17.10;1.00
4183;DHT22;2105;52.300;9.182;2023-10-08T09:31:57;17.30;1.00
4183;DHT22;2105;52.300;9.182;2023-10-08T09:34:30;17.40;1.00
4183;DHT22;2105;52.300;9.182;2023-10-08T09:36:58;17.60;1.00
4183;DHT22;2105;52.300;9.182;2023-10-08T09:39:28;17.70;1.00
4183;DHT22;2105;52.300;9.182;2023-10-08T09:41:59;17.80;99.90
4183;DHT22;2105;52.300;9.182;2023-10-08T09:44:29;17.80;99.90
4183;DHT22;2105;52.300;9.182;2023-10-08T09:47:02;17.50;99.90
4183;DHT22;2105;52.300;9.182;2023-10-08T09:49:31;17.20;99.90
4183;DHT22;2105;52.300;9.182;2023-10-08T09:52:03;17.00;99.90
4183;DHT22;2105;52.300;9.182;2023-10-08T09:54:37;17.10;99.90
4183;DHT22;2105;52.300;9.182;2023-10-08T09:57:09;17.50;1.00
4183;DHT22;2105;52.300;9.182;2023-10-08T09:59:37;18.10;99.90
4183;DHT22;2105;52.300;9.182;2023-10-08T10:02:05;18.20;99.90
4183;DHT22;2105;52.300;9.182;2023-10-08T10:04:35;18.60;99.90
4183;DHT22;2105;52.300;9.182;2023-10-08T10:07:09;18.60;99.90
4183;DHT22;2105;52.300;9.182;2023-10-08T10:09:42;17.80;99.90
4183;DHT22;2105;52.300;9.182;2023-10-08T10:12:11;17.40;99.90
4183;DHT22;2105;52.300;9.182;2023-10-08T10:14:41;17.30;99.90
4183;DHT22;2105;52.300;9.182;2023-10-08T10:17:10;17.10;99.90
4183;DHT22;2105;52.300;9.182;2023-10-08T10:19:40;16.90;99.90
4183;DHT22;2105;52.300;9.182;2023-10-08T10:22:12;16.80;99.90
4183;DHT22;2105;52.300;9.182;2023-10-08T10:24:42;16.50;99.90
4183;DHT22;2105;52.300;9.182;2023-10-08T10:27:12;16.50;1.00
4183;DHT22;2105;52.300;9.182;2023-10-08T10:29:40;16.50;1.00
4183;DHT22;2105;52.300;9.182;2023-10-08T10:32:10;16.60;1.00
4183;DHT22;2105;52.300;9.182;2023-10-08T10:34:39;16.90;1.00
4183;DHT22;2105;52.300;9.182;2023-10-08T10:37:06;17.10;99.90
4183;DHT22;2105;52.300;9.182;2023-10-08T10:39:36;17.30;99.90
4183;DHT22;2105;52.300;9.182;2023-10-08T10:42:06;17.30;99.90
4183;DHT22;2105;52.300;9.182;2023-10-08T10:44:47;17.50;99.90
4183;DHT22;2105;52.300;9.182;2023-10-08T10:47:16;18.00;99.90
4183;DHT22;2105;52.300;9.182;2023-10-08T10:49:53;18.10;99.90
4183;DHT22;2105;52.300;9.182;2023-10-08T10:52:22;18.60;99.90
4183;DHT22;2105;52.300;9.182;2023-10-08T10:55:00;18.80;99.90
4183;DHT22;2105;52.300;9.182;2023-10-08T10:57:27;18.90;99.90
4183;DHT22;2105;52.300;9.182;2023-10-08T11:00:03;18.60;99.90
4183;DHT22;2105;52.300;9.182;2023-10-08T11:02:44;18.60;78.10
4183;DHT22;2105;52.300;9.182;2023-10-08T11:05:15;18.40;51.40
4183;DHT22;2105;52.300;9.182;2023-10-08T11:07:45;18.20;81.50
4183;DHT22;2105;52.300;9.182;2023-10-08T11:10:13;17.70;66.00
4183;DHT22;2105;52.300;9.182;2023-10-08T11:12:42;17.40;93.70
4183;DHT22;2105;52.300;9.182;2023-10-08T11:15:12;17.50;94.50
4183;DHT22;2105;52.300;9.182;2023-10-08T11:17:41;17.70;99.90
4183;DHT22;2105;52.300;9.182;2023-10-08T11:20:23;17.90;94.10
4183;DHT22;2105;52.300;9.182;2023-10-08T11:22:50;18.00;99.90
4183;DHT22;2105;52.300;9.182;2023-10-08T11:25:21;18.10;72.00
4183;DHT22;2105;52.300;9.182;2023-10-08T11:27:52;18.00;82.90
4183;DHT22;2105;52.300;9.182;2023-10-08T11:30:24;18.10;91.90
4183;DHT22;2105;52.300;9.182;2023-10-08T11:32:56;18.10;90.20
4183;DHT22;2105;52.300;9.182;2023-10-08T11:35:23;18.10;99.90
4183;DHT22;2105;52.300;9.182;2023-10-08T11:37:57;18.00;63.60
4183;DHT22;2105;52.300;9.182;2023-10-08T11:40:26;17.90;64.60
4183;DHT22;2105;52.300;9.182;2023-10-08T11:42:56;17.70;86.90
4183;DHT22;2105;52.300;9.182;2023-10-08T11:45:24;17.60;63.90
4183;DHT22;2105;52.300;9.182;2023-10-08T11:47:52;17.50;71.50
4183;DHT22;2105;52.300;9.182;2023-10-08T11:50:25;17.40;82.90
4183;DHT22;2105;52.300;9.182;2023-10-08T11:52:58;17.50;69.10
4183;DHT22;2105;52.300;9.182;2023-10-08T11:55:27;17.70;52.50
4183;DHT22;2105;52.300;9.182;2023-10-08T11:57:56;18.10;66.40
4183;DHT22;2105;52.300;9.182;2023-10-08T12:00:23;18.60;59.00
4183;DHT22;2105;52.300;9.182;2023-10-08T12:02:52;18.90;16.10
4183;DHT22;2105;52.300;9.182;2023-10-08T12:05:21;19.30;14.80
4183;DHT22;2105;52.300;9.182;2023-10-08T12:07:50;19.50;21.90
4183;DHT22;2105;52.300;9.182;2023-10-08T12:10:17;19.20;19.40
4183;DHT22;2105;52.300;9.182;2023-10-08T12:12:48;19.00;28.80
4183;DHT22;2105;52.300;9.182;2023-10-08T12:15:16;18.90;67.90
4183;DHT22;2105;52.300;9.182;2023-10-08T12:17:46;19.00;51.70
4183;DHT22;2105;52.300;9.182;2023-10-08T12:20:34;19.00;16.10
4183;DHT22;2105;52.300;9.182;2023-10-08T12:23:03;18.70;1.00
4183;DHT22;2105;52.300;9.182;2023-10-08T12:25:30;18.50;1.00
4183;DHT22;2105;52.300;9.182;2023-10-08T12:27:58;18.40;1.00
4183;DHT22;2105;52.300;9.182;2023-10-08T12:30:29;18.20;1.00
4183;DHT22;2105;52.300;9.182;2023-10-08T12:32:57;17.80;1.00
4183;DHT22;2105;52.300;9.182;2023-10-08T12:35:25;17.70;1.00
4183;DHT22;2105;52.300;9.182;2023-10-08T12:37:52;17.70;1.00
4183;DHT22;2105;52.300;9.182;2023-10-08T12:40:19;17.50;1.00
4183;DHT22;2105;52.300;9.182;2023-10-08T12:42:52;17.30;1.00
4183;DHT22;2105;52.300;9.182;2023-10-08T12:45:20;17.60;15.50
4183;DHT22;2105;52.300;9.182;2023-10-08T12:47:49;18.30;19.20
4183;DHT22;2105;52.300;9.182;2023-10-08T12:50:16;18.90;1.00
4183;DHT22;2105;52.300;9.182;2023-10-08T12:52:48;19.20;1.00
4183;DHT22;2105;52.300;9.182;2023-10-08T12:55:21;19.60;1.00
4183;DHT22;2105;52.300;9.182;2023-10-08T12:57:50;19.70;1.00
4183;DHT22;2105;52.300;9.182;2023-10-08T13:00:22;19.90;1.00
4183;DHT22;2105;52.300;9.182;2023-10-08T13:02:51;19.90;1.00
4183;DHT22;2105;52.300;9.182;2023-10-08T13:05:20;19.80;1.00
4183;DHT22;2105;52.300;9.182;2023-10-08T13:07:54;19.60;1.00
4183;DHT22;2105;52.300;9.182;2023-10-08T13:10:22;19.50;1.00
4183;DHT22;2105;52.300;9.182;2023-10-08T13:12:49;18.70;1.00
4183;DHT22;2105;52.300;9.182;2023-10-08T13:15:16;18.70;1.00
4183;DHT22;2105;52.300;9.182;2023-10-08T13:17:43;18.30;1.00
4183;DHT22;2105;52.300;9.182;2023-10-08T13:20:12;17.80;5.10
4183;DHT22;2105;52.300;9.182;2023-10-08T13:22:42;17.30;40.60
4183;DHT22;2105;52.300;9.182;2023-10-08T13:25:09;16.90;48.30
4183;DHT22;2105;52.300;9.182;2023-10-08T13:27:37;16.90;80.70
4183;DHT22;2105;52.300;9.182;2023-10-08T13:30:06;16.90;98.40
4183;DHT22;2105;52.300;9.182;2023-10-08T13:32:34;16.90;99.90
4183;DHT22;2105;52.300;9.182;2023-10-08T13:35:02;16.90;99.90
4183;DHT22;2105;52.300;9.182;2023-10-08T13:37:32;16.90;99.90
4183;DHT22;2105;52.300;9.182;2023-10-08T13:39:59;16.80;99.90
4183;DHT22;2105;52.300;9.182;2023-10-08T13:42:26;16.90;99.90
4183;DHT22;2105;52.300;9.182;2023-10-08T13:44:53;16.90;99.90
4183;DHT22;2105;52.300;9.182;2023-10-08T13:47:20;17.10;99.30
4183;DHT22;2105;52.300;9.182;2023-10-08T13:49:50;17.20;90.90
4183;DHT22;2105;52.300;9.182;2023-10-08T13:52:18;17.20;89.20
4183;DHT22;2105;52.300;9.182;2023-10-08T13:54:47;17.40;99.90
4183;DHT22;2105;52.300;9.182;2023-10-08T13:57:17;17.40;99.90
4183;DHT22;2105;52.300;9.182;2023-10-08T13:59:45;17.10;99.90
4183;DHT22;2105;52.300;9.182;2023-10-08T14:02:12;17.10;99.90
4183;DHT22;2105;52.300;9.182;2023-10-08T14:04:41;17.00;99.90
4183;DHT22;2105;52.300;9.182;2023-10-08T14:07:09;17.00;99.90
4183;DHT22;2105;52.300;9.182;2023-10-08T14:09:37;17.10;99.90
4183;DHT22;2105;52.300;9.182;2023-10-08T14:12:06;17.20;99.90
4183;DHT22;2105;52.300;9.182;2023-10-08T14:14:33;17.20;99.90
4183;DHT22;2105;52.300;9.182;2023-10-08T14:17:00;17.30;99.90
4183;DHT22;2105;52.300;9.182;2023-10-08T14:19:31;17.20;99.90
4183;DHT22;2105;52.300;9.182;2023-10-08T14:22:04;17.20;99.90
4183;DHT22;2105;52.300;9.182;2023-10-08T14:24:34;17.10;99.90
4183;DHT22;2105;52.300;9.182;2023-10-08T14:27:05;17.10;99.90
4183;DHT22;2105;52.300;9.182;2023-10-08T14:29:36;17.10;99.90
4183;DHT22;2105;52.300;9.182;2023-10-08T14:32:04;17.10;99.90
4183;DHT22;2105;52.300;9.182;2023-10-08T14:34:34;17.00;99.90
4183;DHT22;2105;52.300;9.182;2023-10-08T14:37:15;17.10;99.90
4183;DHT22;2105;52.300;9.182;2023-10-08T14:39:58;17.10;99.90
4183;DHT22;2105;52.300;9.182;2023-10-08T14:42:44;17.20;99.90
4183;DHT22;2105;52.300;9.182;2023-10-08T14:45:21;17.20;99.90
4183;DHT22;2105;52.300;9.182;2023-10-08T14:47:52;17.20;99.90
4183;DHT22;2105;52.300;9.182;2023-10-08T14:50:20;17.30;99.90
4183;DHT22;2105;52.300;9.182;2023-10-08T14:52:48;17.30;99.90
4183;DHT22;2105;52.300;9.182;2023-10-08T14:55:15;17.30;99.90
4183;DHT22;2105;52.300;9.182;2023-10-08T14:57:43;17.30;99.90
4183;DHT22;2105;52.300;9.182;2023-10-08T15:00:11;17.30;99.90
4183;DHT22;2105;52.300;9.182;2023-10-08T15:02:38;17.30;99.90
4183;DHT22;2105;52.300;9.182;2023-10-08T15:05:05;17.20;99.90
4183;DHT22;2105;52.300;9.182;2023-10-08T15:07:32;17.20;99.90
4183;DHT22;2105;52.300;9.182;2023-10-08T15:09:59;17.40;99.90
4183;DHT22;2105;52.300;9.182;2023-10-08T15:12:26;17.40;99.90
4183;DHT22;2105;52.300;9.182;2023-10-08T15:14:54;17.40;99.90
4183;DHT22;2105;52.300;9.182;2023-10-08T15:17:22;17.30;99.90
4183;DHT22;2105;52.300;9.182;2023-10-08T15:19:49;17.00;99.90
4183;DHT22;2105;52.300;9.182;2023-10-08T15:22:17;16.70;99.90
4183;DHT22;2105;52.300;9.182;2023-10-08T15:24:43;16.60;99.90
4183;DHT22;2105;52.300;9.182;2023-10-08T15:27:10;16.70;99.90
4183;DHT22;2105;52.300;9.182;2023-10-08T15:29:37;16.70;99.90
4183;DHT22;2105;52.300;9.182;2023-10-08T15:32:05;16.60;99.90
4183;DHT22;2105;52.300;9.182;2023-10-08T15:34:32;16.60;99.90
4183;DHT22;2105;52.300;9.182;2023-10-08T15:36:59;16.50;99.90
4183;DHT22;2105;52.300;9.182;2023-10-08T15:39:26;16.30;99.90
4183;DHT22;2105;52.300;9.182;2023-10-08T15:41:54;16.10;99.90
4183;DHT22;2105;52.300;9.182;2023-10-08T15:44:22;15.90;99.90
4183;DHT22;2105;52.300;9.182;2023-10-08T15:46:48;15.80;99.90
4183;DHT22;2105;52.300;9.182;2023-10-08T15:49:16;15.70;99.90
4183;DHT22;2105;52.300;9.182;2023-10-08T15:51:45;15.60;1.00
4183;DHT22;2105;52.300;9.182;2023-10-08T15:54:12;15.40;1.00
4183;DHT22;2105;52.300;9.182;2023-10-08T15:56:38;15.30;1.00
4183;DHT22;2105;52.300;9.182;2023-10-08T15:59:05;15.20;1.00
4183;DHT22;2105;52.300;9.182;2023-10-08T16:01:32;15.20;1.00
4183;DHT22;2105;52.300;9.182;2023-10-08T16:03:58;15.20;58.30
4183;DHT22;2105;52.300;9.182;2023-10-08T16:06:26;15.10;99.90
4183;DHT22;2105;52.300;9.182;2023-10-08T16:08:53;15.10;99.90
4183;DHT22;2105;52.300;9.182;2023-10-08T16:11:20;15.10;1.00
4183;DHT22;2105;52.300;9.182;2023-10-08T16:13:47;15.20;1.00
4183;DHT22;2105;52.300;9.182;2023-10-08T16:16:14;15.20;1.00
4183;DHT22;2105;52.300;9.182;2023-10-08T16:18:40;15.20;1.00
4183;DHT22;2105;52.300;9.182;2023-10-08T16:21:07;15.10;1.00
4183;DHT22;2105;52.300;9.182;2023-10-08T16:23:38;15.00;1.00
4183;DHT22;2105;52.300;9.182;2023-10-08T16:26:09;15.00;1.00
4183;DHT22;2105;52.300;9.182;2023-10-08T16:28:36;14.90;1.00